Terminal Aerodrome Forecast
Issued by NWS

Home | Current Version | Previous Version | Text Only | Print | Product List | Glossary On
Versions: 1 2 3 4 5 6 7 8 9 10 11 12 13 14 15 16 17 18 19 20 21 22 23 24 25 26 27 28 29 30 31 32
000
FTUS41 KOKX 221125
TAFGON
TAF
KGON 221125Z 2212/2312 31008KT P6SM FEW060
     FM221400 27012G18KT P6SM SCT060
     FM221700 26014G23KT P6SM BKN060
     FM222200 31015G23KT P6SM BKN060
     FM230100 31010G18KT P6SM SCT060
     FM230400 30008KT P6SM SKC
     FM230800 30005KT P6SM SKC=

USA.gov is the U.S. government's official web portal to all federal, state and local government web resources and services.